METAR Data
IDs: Format: Raw Decoded Include TAF

Data at: 0156 UTC 19 Oct 2021

PAGM 190131Z AUTO 12028G41KT 2 1/2SM -SN BR OVC008 00/M02 A2925 RMK AO2 PK WND 12041/0126 VIS 1 3/4V3 P0000 FZRANO
PAGM 190115Z AUTO 12028G39KT 3SM -SN BR OVC008 00/M02 A2926 RMK AO2 PK WND 13039/0107 CIG 006V011 P0000 FZRANO
PAGM 190103Z AUTO 12030G39KT 2 1/2SM -SN BR OVC008 00/M02 A2928 RMK AO2 PK WND 11037/0102 VIS 1 3/4V4 P0000 FZRANO $
PAGM 190056Z AUTO 12031G40KT 3SM -SN BR BKN008 OVC014 00/M02 A2928 RMK AO2 PK WND 13043/0043 UPB04E13SNE04B13 CIG 006V011 SLP923 P0000 T00001017 FZRANO
PAGM 190053Z AUTO 12031G42KT 2 1/2SM -SN BR BKN008 OVC014 00/M02 A2929 RMK AO2 PK WND 13043/0043 VIS 1 3/4V3 UPB04E13SNE04B13 CIG 006V011 P0000 FZRANO
PAGM 190044Z AUTO 12032G43KT 1 3/4SM -SN BR BKN008 OVC014 00/M02 A2929 RMK AO2 PK WND 13043/0043 UPB04E13SNE04B13 CIG 006V011 PRESFR P0000 FZRANO $
PAGM 190035Z AUTO 12033G40KT 1 1/2SM -SN BR SCT008 BKN012 OVC030 00/M02 A2931 RMK AO2 PK WND 13040/0032 UPB04E13SNE04B13 P0000 FZRANO
PAGM 182356Z AUTO 12026G34KT 7SM -SN SCT012 SCT016 OVC039 00/M02 A2934 RMK AO2 PK WND 12038/2308 UPB15E20SNB20 PRESFR SLP943 P0000 60000 T00001022 10000 21022 58043 FZRANO
PAGM 182256Z AUTO 12027G36KT 10SM BKN029 BKN044 OVC055 00/M03 A2942 RMK AO2 PK WND 13039/2238 SLP969 T00001033 FZRANO
PAGM 182252Z AUTO 13029G36KT 10SM BKN029 BKN044 OVC055 M01/M03 A2942 RMK AO2 PK WND 13039/2238 FZRANO
PAGM 182156Z AUTO 12029G33KT 10SM FEW028 OVC070 M01/M04 A2947 RMK AO2 PK WND 13034/2126 SLP986 T10061039 FZRANO
PAGM 182056Z AUTO 12025G34KT 10SM BKN024 OVC080 M01/M04 A2952 RMK AO2 PK WND 12036/2022 SLP002 T10111044 58052 FZRANO
PAGM 181956Z AUTO 13025G31KT 10SM BKN026 M02/M06 A2958 RMK AO2 PK WND 13032/1937 SLP024 T10171056 FZRANO
PAGM 181856Z AUTO 13026G30KT 10SM BKN090 M02/M06 A2963 RMK AO2 PK WND 13030/1847 SLP040 T10171061 FZRANO
PAGM 181825Z AUTO 12024KT 10SM FEW024 OVC090 M02/M07 A2965 RMK AO2 PK WND 13028/1808 FZRANO
PAGM 181756Z AUTO 13021KT 10SM BKN026 OVC090 M02/M07 A2967 RMK AO2 PK WND 13028/1745 SLP055 T10171067 11011 21017 58037 FZRANO
PAGM 181714Z AUTO 13023KT 10SM OVC028 M02/M07 A2970 RMK AO2 PK WND 13026/1714 FZRANO
PAGM 181356Z AUTO 13013KT 10SM OVC032 M02/M07 A2983 RMK AO2 SLP108 T10171067 FZRANO
PAGM 181256Z AUTO 12011KT 10SM OVC034 M01/M06 A2985 RMK AO2 SLP113 T10111061 FZRANO
PAGM 181156Z AUTO 09008KT 10SM OVC034 M01/M07 A2988 RMK AO2 SLP123 T10111072 11011 21017 58015 FZRANO
PAGM 181056Z AUTO 10009KT 10SM OVC032 M01/M07 A2990 RMK AO2 SLP130 T10111067 FZRANO
PAGM 180956Z AUTO 07006KT 10SM OVC034 M01/M07 A2992 RMK AO2 SLP137 T10111067 FZRANO
PAGM 180856Z AUTO 08008KT 10SM BKN034 M01/M07 A2992 RMK AO2 SLP139 T10111072 400061017 58006 FZRANO
PAGM 180756Z AUTO 05008KT 10SM BKN034 M01/M07 A2993 RMK AO2 SLP142 T10111067 FZRANO
PAGM 180656Z AUTO 05009KT 10SM OVC036 M01/M08 A2994 RMK AO2 SLP144 T10111078 FZRANO
PAGM 180356Z AUTO 02015KT 10SM OVC036 M01/M08 A2995 RMK AO2 SLP148 T10111078 FZRANO
PAGM 180256Z AUTO 02016KT 10SM OVC036 M01/M07 A2994 RMK AO2 SLP145 T10111067 51018 FZRANO
PAGM 180112Z AUTO 02018KT 10SM OVC032 M01/M06 A2992 RMK AO2 FZRANO
PAGM 180056Z AUTO 02020KT 10SM OVC029 M01/M06 A2991 RMK AO2 PK WND 03027/2359 SLP136 T10061056 FZRANO
PAGM 172356Z AUTO 03023G26KT 10SM OVC031 M01/M06 A2989 RMK AO2 PK WND 03026/2354 SLP128 T10061061 11006 21011 51021 FZRANO
PAGM 172256Z AUTO 03017KT 10SM OVC031 M01/M06 A2987 RMK AO2 PK WND 03029/2217 SLP123 T10061061 FZRANO
PAGM 172056Z AUTO 03024G30KT 10SM OVC025 M01/M06 A2983 RMK AO2 PK WND 03032/2019 SLP107 T10111056 51031 FZRANO
PAGM 171956Z AUTO 04025G31KT 10SM OVC025 M01/M05 A2979 RMK AO2 PK WND 03036/1857 SLP096 T10111050 FZRANO
PAGM 171856Z AUTO 02032G36KT 10SM OVC023 M01/M06 A2977 RMK AO2 PK WND 03037/1843 SLP086 T10111056 FZRANO
PAGM 171756Z AUTO 03026G34KT 10SM OVC027 M01/M05 A2973 RMK AO2 PK WND 04038/1724 SLP075 T10111050 10000 21011 53016 FZRANO
PAGM 171656Z AUTO 03030G34KT 10SM OVC029 M01/M04 A2971 RMK AO2 PK WND 03038/1626 SLP067 T10061044 FZRANO
PAGM 171645Z AUTO 03025G36KT 10SM BKN029 OVC036 M01/M05 A2971 RMK AO2 PK WND 03038/1626 FZRANO
PAGM 171625Z AUTO 03033G37KT 10SM SCT026 OVC032 M01/M06 A2969 RMK AO2 PK WND 03038/1606 FZRANO
PAGM 171456Z AUTO 04029G35KT 10SM OVC030 00/M05 A2965 RMK AO2 PK WND 04035/1454 SLP047 T00001050 51025 FZRANO
PAGM 171432Z AUTO 04028G34KT 10SM OVC030 M01/M05 A2964 RMK AO2 PK WND 04034/1432 FZRANO